createdAt,value
2022-10-18T00:00:00.666Z,8.65
2022-10-18T00:02:27.352Z,8.95
2022-10-18T00:04:53.971Z,9.38
2022-10-18T00:07:20.563Z,11.25
2022-10-18T00:09:47.158Z,8.98
2022-10-18T00:12:13.864Z,8.48
2022-10-18T00:14:40.430Z,10.35
2022-10-18T00:17:07.159Z,9.50
2022-10-18T00:19:33.711Z,12.15
2022-10-18T00:22:00.267Z,11.68
2022-10-18T00:24:26.845Z,11.25
2022-10-18T00:26:53.396Z,10.65
2022-10-18T00:29:20.018Z,8.45
2022-10-18T00:31:46.573Z,7.75
2022-10-18T00:34:15.547Z,9.65
2022-10-18T00:36:43.962Z,13.70
2022-10-18T00:39:17.546Z,9.73
2022-10-18T00:41:44.708Z,8.57
2022-10-18T00:44:11.224Z,8.10
2022-10-18T00:46:43.561Z,7.05
2022-10-18T00:49:18.948Z,9.45
2022-10-18T00:52:00.564Z,11.15
2022-10-18T00:54:29.958Z,10.55
2022-10-18T00:56:57.126Z,12.13
2022-10-18T00:59:24.686Z,14.77
2022-10-18T01:01:51.353Z,13.07
2022-10-18T01:04:19.406Z,15.65
2022-10-18T01:06:59.615Z,11.90
2022-10-18T01:09:41.599Z,11.93
2022-10-18T01:12:53.412Z,10.70
2022-10-18T01:15:23.054Z,9.48
2022-10-18T01:18:05.276Z,11.02
2022-10-18T01:20:59.790Z,9.88
2022-10-18T01:24:00.127Z,10.48
2022-10-18T01:26:52.939Z,7.75
2022-10-18T01:29:47.775Z,10.10
2022-10-18T01:32:19.769Z,7.45
2022-10-18T01:34:49.010Z,11.73
2022-10-18T01:37:19.988Z,12.48
2022-10-18T01:39:48.563Z,9.68
2022-10-18T01:42:20.283Z,10.50
2022-10-18T01:44:48.423Z,13.82
2022-10-18T01:47:16.827Z,12.30
2022-10-18T01:49:43.431Z,13.15
2022-10-18T01:52:14.300Z,14.23
2022-10-18T01:54:46.290Z,13.10
2022-10-18T01:57:36.989Z,18.20
2022-10-18T02:00:12.846Z,10.95
2022-10-18T02:03:05.665Z,9.75
2022-10-18T02:06:03.545Z,9.93
2022-10-18T02:08:44.033Z,17.88
2022-10-18T02:11:13.720Z,12.63
2022-10-18T02:13:49.660Z,11.50
2022-10-18T02:16:48.440Z,11.23
2022-10-18T02:21:54.729Z,8.02
2022-10-18T02:24:23.812Z,9.70
2022-10-18T02:26:50.586Z,8.57
2022-10-18T02:29:17.478Z,11.25
2022-10-18T02:31:46.592Z,15.73
2022-10-18T02:34:19.144Z,8.68
2022-10-18T02:36:52.974Z,10.05
2022-10-18T02:39:25.173Z,10.50
2022-10-18T02:41:54.372Z,11.30
2022-10-18T02:44:21.100Z,11.80
2022-10-18T02:46:48.174Z,11.73
2022-10-18T02:49:14.786Z,12.95
2022-10-18T02:51:41.639Z,15.52
2022-10-18T02:54:08.570Z,9.70
2022-10-18T02:56:35.785Z,13.60
2022-10-18T02:59:03.736Z,10.75
2022-10-18T03:01:30.469Z,18.90
2022-10-18T03:03:57.923Z,15.93
2022-10-18T03:06:24.498Z,14.00
2022-10-18T03:08:51.165Z,20.25
2022-10-18T03:11:17.797Z,15.02
2022-10-18T03:13:44.473Z,16.98
2022-10-18T03:16:11.958Z,14.85
2022-10-18T03:18:38.543Z,17.20
2022-10-18T03:21:06.989Z,13.65
2022-10-18T03:23:33.989Z,15.32
2022-10-18T03:26:00.790Z,13.90
2022-10-18T03:28:27.632Z,17.33
2022-10-18T03:30:59.199Z,14.35
2022-10-18T03:33:25.806Z,13.90
2022-10-18T03:35:52.350Z,14.73
2022-10-18T03:38:18.930Z,13.15
2022-10-18T03:40:45.513Z,11.70
2022-10-18T03:43:12.103Z,15.90
2022-10-18T03:45:38.688Z,10.98
2022-10-18T03:48:05.676Z,9.18
2022-10-18T03:50:32.276Z,13.95
2022-10-18T03:52:58.983Z,13.00
2022-10-18T03:55:25.679Z,9.00
2022-10-18T03:57:52.308Z,10.82
2022-10-18T04:00:18.905Z,11.93
2022-10-18T04:02:45.557Z,13.02
2022-10-18T04:05:13.022Z,14.57
2022-10-18T04:07:39.645Z,15.15
2022-10-18T04:10:07.102Z,14.70
2022-10-18T04:12:33.968Z,16.17
2022-10-18T04:15:00.778Z,14.98
2022-10-18T04:17:27.327Z,20.58
2022-10-18T04:19:53.946Z,14.45
2022-10-18T04:22:20.510Z,15.55
2022-10-18T04:24:47.121Z,14.02
2022-10-18T04:27:13.727Z,10.68
2022-10-18T04:29:40.384Z,13.85
2022-10-18T04:32:06.945Z,14.27
2022-10-18T04:34:33.582Z,11.40
2022-10-18T04:37:00.245Z,26.13
2022-10-18T04:39:26.931Z,30.90
2022-10-18T04:41:53.607Z,31.17
2022-10-18T04:44:20.166Z,18.13
2022-10-18T04:46:46.751Z,14.45
2022-10-18T04:49:13.384Z,12.43
2022-10-18T04:51:40.228Z,16.00
2022-10-18T04:54:06.834Z,12.48
2022-10-18T04:56:33.475Z,19.17
2022-10-18T04:59:00.086Z,15.93
2022-10-18T05:01:26.794Z,23.67
2022-10-18T05:03:54.533Z,17.35
2022-10-18T05:06:21.915Z,20.95
2022-10-18T05:08:49.420Z,23.33
2022-10-18T05:11:15.997Z,35.75
2022-10-18T05:13:44.945Z,23.52
2022-10-18T05:16:13.840Z,27.73
2022-10-18T05:18:40.523Z,25.17
2022-10-18T05:21:07.113Z,20.48
2022-10-18T05:23:33.801Z,18.27
2022-10-18T05:26:06.187Z,18.25
2022-10-18T05:28:39.270Z,25.10
2022-10-18T05:31:08.601Z,19.25
2022-10-18T05:33:35.515Z,25.23
2022-10-18T05:36:02.111Z,25.02
2022-10-18T05:38:31.038Z,23.13
2022-10-18T05:40:58.432Z,17.73
2022-10-18T05:43:28.873Z,20.55
2022-10-18T05:45:55.795Z,18.10
2022-10-18T05:48:22.753Z,15.80
2022-10-18T05:50:49.428Z,12.00
2022-10-18T05:53:35.621Z,31.77
2022-10-18T05:56:03.212Z,11.85
2022-10-18T05:58:29.823Z,18.88
2022-10-18T06:00:59.926Z,19.20
2022-10-18T06:03:27.724Z,16.15
2022-10-18T06:06:00.259Z,15.60
2022-10-18T06:08:27.287Z,16.97
2022-10-18T06:10:53.920Z,17.70
2022-10-18T06:13:20.460Z,22.45
2022-10-18T06:15:47.029Z,16.60
2022-10-18T06:18:13.583Z,17.58
2022-10-18T06:20:40.136Z,17.58
2022-10-18T06:23:06.908Z,16.02
2022-10-18T06:25:33.536Z,15.25
2022-10-18T06:28:00.079Z,12.38
2022-10-18T06:30:26.692Z,13.32
2022-10-18T06:32:53.338Z,13.32
2022-10-18T06:35:19.906Z,14.10
2022-10-18T06:37:46.463Z,11.60
2022-10-18T06:40:13.015Z,9.93
2022-10-18T06:42:40.323Z,8.93
2022-10-18T06:45:07.591Z,11.02
2022-10-18T06:47:34.215Z,7.65
2022-10-18T06:50:00.806Z,7.45
2022-10-18T06:52:27.378Z,9.05
2022-10-18T06:54:54.083Z,10.10
2022-10-18T06:57:21.650Z,8.07
2022-10-18T06:59:49.976Z,7.07
2022-10-18T07:02:17.501Z,10.50
2022-10-18T07:04:44.218Z,11.15
2022-10-18T07:07:10.922Z,10.40
2022-10-18T07:09:37.508Z,11.18
2022-10-18T07:12:04.383Z,22.17
2022-10-18T07:14:30.944Z,7.28
2022-10-18T07:17:00.720Z,11.13
2022-10-18T07:19:27.396Z,10.52
2022-10-18T07:21:53.963Z,9.15
2022-10-18T07:24:20.581Z,9.45
2022-10-18T07:26:47.219Z,10.23
2022-10-18T07:29:13.790Z,8.00
2022-10-18T07:31:41.095Z,8.18
2022-10-18T07:34:10.912Z,9.38
2022-10-18T07:36:37.588Z,13.07
2022-10-18T07:39:04.905Z,5.43
2022-10-18T07:41:33.648Z,6.13
2022-10-18T07:44:01.407Z,10.52
2022-10-18T07:46:28.051Z,8.15
2022-10-18T07:48:54.985Z,5.38
2022-10-18T07:51:22.284Z,8.02
2022-10-18T07:53:48.848Z,10.82
2022-10-18T07:56:20.618Z,7.00
2022-10-18T07:58:51.259Z,7.72
2022-10-18T08:01:19.155Z,6.97
2022-10-18T08:03:46.273Z,5.47
2022-10-18T08:06:15.172Z,9.18
2022-10-18T08:08:42.491Z,9.88
2022-10-18T08:11:15.657Z,8.88
2022-10-18T08:13:43.328Z,7.97
2022-10-18T08:16:17.725Z,9.05
2022-10-18T08:18:44.376Z,5.30
2022-10-18T08:21:13.183Z,6.68
2022-10-18T08:23:40.603Z,7.38
2022-10-18T08:26:10.555Z,5.60
2022-10-18T08:28:37.829Z,11.88
2022-10-18T08:31:06.595Z,9.38
2022-10-18T08:33:34.842Z,8.05
2022-10-18T08:36:07.482Z,6.00
2022-10-18T08:38:38.749Z,9.23
2022-10-18T08:41:36.724Z,12.88
2022-10-18T08:44:17.490Z,8.82
2022-10-18T08:46:50.155Z,4.03
2022-10-18T08:49:28.525Z,5.77
2022-10-18T08:51:57.000Z,5.55
2022-10-18T08:54:37.615Z,6.88
2022-10-18T08:57:13.043Z,12.20
2022-10-18T08:59:41.038Z,7.18
2022-10-18T09:02:26.888Z,3.03
2022-10-18T09:05:05.658Z,6.60
2022-10-18T09:08:09.797Z,6.07
2022-10-18T09:10:52.257Z,5.47
2022-10-18T09:13:31.195Z,7.82
2022-10-18T09:16:10.805Z,4.28
2022-10-18T09:19:02.683Z,10.02
2022-10-18T09:21:44.423Z,7.00
2022-10-18T09:24:22.348Z,5.93
2022-10-18T09:26:55.722Z,9.20
2022-10-18T09:29:40.400Z,3.88
2022-10-18T09:32:31.906Z,3.80
2022-10-18T09:35:13.865Z,3.00
2022-10-18T09:37:42.035Z,6.32
2022-10-18T09:40:19.039Z,6.47
2022-10-18T09:43:12.155Z,3.72
2022-10-18T09:45:44.817Z,4.38
2022-10-18T09:48:20.010Z,5.93
2022-10-18T09:50:53.832Z,3.03
2022-10-18T09:53:37.695Z,3.75
2022-10-18T09:58:47.941Z,4.65
2022-10-18T10:01:19.810Z,3.45
2022-10-18T10:03:46.477Z,5.63
2022-10-18T10:06:13.144Z,9.07
2022-10-18T10:08:47.660Z,3.42
2022-10-18T10:11:35.076Z,5.57
2022-10-18T10:14:23.208Z,4.75
2022-10-18T10:17:02.282Z,3.90
2022-10-18T10:19:33.629Z,5.75
2022-10-18T10:22:07.342Z,6.90
2022-10-18T10:24:51.232Z,3.30
2022-10-18T10:27:20.637Z,8.77
2022-10-18T10:29:47.211Z,3.33
2022-10-18T10:32:22.224Z,5.00
2022-10-18T10:34:49.632Z,5.03
2022-10-18T10:37:25.296Z,6.97
2022-10-18T10:40:19.301Z,4.82
2022-10-18T10:43:38.891Z,6.85
2022-10-18T10:46:15.308Z,4.95
2022-10-18T10:48:41.829Z,4.03
2022-10-18T10:51:11.021Z,5.05
2022-10-18T10:53:43.253Z,5.85
2022-10-18T10:56:24.617Z,3.78
2022-10-18T10:58:52.281Z,4.13
2022-10-18T11:01:23.564Z,3.30
2022-10-18T11:03:53.284Z,4.70
2022-10-18T11:06:40.855Z,4.45
2022-10-18T11:09:19.506Z,5.32
2022-10-18T11:11:58.641Z,5.68
2022-10-18T11:14:30.376Z,4.05
2022-10-18T11:16:56.880Z,3.50
2022-10-18T11:19:53.288Z,4.97
2022-10-18T11:22:24.362Z,2.83
2022-10-18T11:24:51.028Z,5.07
2022-10-18T11:27:20.636Z,7.15
2022-10-18T11:30:08.861Z,6.75
2022-10-18T11:33:03.236Z,3.88
2022-10-18T11:35:32.615Z,4.85
2022-10-18T11:38:22.202Z,3.42
2022-10-18T11:41:30.489Z,7.10
2022-10-18T11:44:04.222Z,2.50
2022-10-18T11:46:42.960Z,4.22
2022-10-18T11:49:28.151Z,2.80
2022-10-18T11:52:27.525Z,3.53
2022-10-18T11:55:10.047Z,3.38
2022-10-18T11:57:58.364Z,3.97
2022-10-18T12:01:07.432Z,3.35
2022-10-18T12:03:57.971Z,2.92
2022-10-18T12:06:30.862Z,4.57
2022-10-18T12:09:02.105Z,5.22
2022-10-18T12:11:38.622Z,3.22
2022-10-18T12:14:14.930Z,2.92
2022-10-18T12:16:51.562Z,5.40
2022-10-18T12:19:26.706Z,3.20
2022-10-18T12:21:57.609Z,8.05
2022-10-18T12:24:30.337Z,2.67
2022-10-18T12:27:02.435Z,5.87
2022-10-18T12:29:32.023Z,4.18
2022-10-18T12:32:17.685Z,3.75
2022-10-18T12:34:52.267Z,4.20
2022-10-18T12:37:27.951Z,3.78
2022-10-18T12:40:10.536Z,5.78
2022-10-18T12:42:45.198Z,3.17
2022-10-18T12:45:35.523Z,4.60
2022-10-18T12:48:06.886Z,5.00
2022-10-18T12:50:44.307Z,2.38
2022-10-18T12:53:12.270Z,4.57
2022-10-18T12:55:41.065Z,5.05
2022-10-18T12:58:22.641Z,6.47
2022-10-18T13:00:49.194Z,3.13
2022-10-18T13:03:18.308Z,3.05
2022-10-18T13:05:53.561Z,3.50
2022-10-18T13:08:38.262Z,5.65
2022-10-18T13:11:07.851Z,4.53
2022-10-18T13:13:52.938Z,7.40
2022-10-18T13:16:22.752Z,3.10
2022-10-18T13:19:14.147Z,7.47
2022-10-18T13:21:54.971Z,4.43
2022-10-18T13:24:56.206Z,3.42
2022-10-18T13:27:37.079Z,10.55
2022-10-18T13:30:27.898Z,6.20
2022-10-18T13:33:23.535Z,5.65
2022-10-18T13:36:00.798Z,2.97
2022-10-18T13:38:30.828Z,5.90
2022-10-18T13:41:05.120Z,4.35
2022-10-18T13:43:56.810Z,11.52
2022-10-18T13:46:32.512Z,4.03
2022-10-18T13:49:14.733Z,4.78
2022-10-18T13:51:55.541Z,3.60
2022-10-18T13:54:42.287Z,6.15
2022-10-18T13:57:24.312Z,11.70
2022-10-18T14:00:12.721Z,11.02
2022-10-18T14:02:59.864Z,5.63
2022-10-18T14:05:49.108Z,10.15
2022-10-18T14:08:40.172Z,3.35
2022-10-18T14:11:47.577Z,3.10
2022-10-18T14:14:34.419Z,5.68
2022-10-18T14:17:19.959Z,5.85
2022-10-18T14:19:54.295Z,6.90
2022-10-18T14:22:33.271Z,9.88
2022-10-18T14:25:00.153Z,5.90
2022-10-18T14:27:29.183Z,7.32
2022-10-18T14:30:10.301Z,5.28
2022-10-18T14:32:37.072Z,9.48
2022-10-18T14:35:34.018Z,11.10
2022-10-18T14:37:52.946Z,9.38
2022-10-18T14:40:38.891Z,6.05
2022-10-18T14:43:14.769Z,8.02
2022-10-18T14:45:44.608Z,5.88
2022-10-18T14:48:21.951Z,4.47
2022-10-18T14:51:00.217Z,5.30
2022-10-18T14:53:36.262Z,5.47
2022-10-18T14:56:04.593Z,4.85
2022-10-18T14:58:32.052Z,8.70
2022-10-18T15:00:59.792Z,15.75
2022-10-18T15:03:28.392Z,8.15
2022-10-18T15:05:59.344Z,5.75
2022-10-18T15:08:51.563Z,7.63
2022-10-18T15:11:18.607Z,4.70
2022-10-18T15:13:53.515Z,8.73
2022-10-18T15:16:23.452Z,5.65
2022-10-18T15:19:15.789Z,8.77
2022-10-18T15:22:34.136Z,5.40
2022-10-18T15:25:14.754Z,7.50
2022-10-18T15:28:02.307Z,8.00
2022-10-18T15:30:38.624Z,9.20
2022-10-18T15:33:10.523Z,31.02
2022-10-18T15:35:38.677Z,31.38
2022-10-18T15:38:16.091Z,15.50
2022-10-18T15:40:43.796Z,13.63
2022-10-18T15:43:25.781Z,18.27
2022-10-18T15:46:01.588Z,19.73
2022-10-18T15:48:35.454Z,46.47
2022-10-18T15:51:19.570Z,35.20
2022-10-18T15:53:53.158Z,39.83
2022-10-18T15:59:06.810Z,58.22
2022-10-18T16:01:42.782Z,88.30
2022-10-18T16:04:18.909Z,85.80
2022-10-18T16:06:45.880Z,91.22
2022-10-18T16:09:18.301Z,77.20
2022-10-18T16:11:45.408Z,88.10
2022-10-18T16:14:12.147Z,104.00
2022-10-18T16:16:40.252Z,126.97
2022-10-18T16:19:07.568Z,145.07
2022-10-18T16:21:37.401Z,111.05
2022-10-18T16:24:04.704Z,112.93
2022-10-18T16:26:31.864Z,96.65
2022-10-18T16:28:59.051Z,109.03
2022-10-18T16:32:01.629Z,78.20
2022-10-18T16:34:28.375Z,68.22
2022-10-18T16:36:55.396Z,79.57
2022-10-18T16:39:22.925Z,90.53
2022-10-18T16:41:49.845Z,129.50
2022-10-18T16:44:17.209Z,136.48
2022-10-18T16:46:44.269Z,107.88
2022-10-18T16:49:25.303Z,80.85
2022-10-18T16:51:53.571Z,88.85
2022-10-18T16:54:20.408Z,81.00
2022-10-18T16:56:47.853Z,87.30
2022-10-18T16:59:26.854Z,66.65
2022-10-18T17:01:53.728Z,79.72
2022-10-18T17:04:20.480Z,66.57
2022-10-18T17:06:49.016Z,56.92
2022-10-18T17:09:16.471Z,32.33
2022-10-18T17:11:43.202Z,34.78
2022-10-18T17:14:09.813Z,47.58
2022-10-18T17:16:38.876Z,41.78
2022-10-18T17:19:08.068Z,37.50
2022-10-18T17:21:35.319Z,31.70
2022-10-18T17:24:03.263Z,28.60
2022-10-18T17:26:30.630Z,36.75
2022-10-18T17:29:03.945Z,54.85
2022-10-18T17:31:32.289Z,56.45
2022-10-18T17:34:01.561Z,82.15
2022-10-18T17:36:29.824Z,104.32
2022-10-18T17:38:56.595Z,45.72
2022-10-18T17:41:23.343Z,28.23
2022-10-18T17:43:49.988Z,24.38
2022-10-18T17:46:17.874Z,19.88
2022-10-18T17:48:44.678Z,15.65
2022-10-18T17:51:14.874Z,20.50
2022-10-18T17:53:41.523Z,18.08
2022-10-18T17:56:09.349Z,20.27
2022-10-18T17:58:36.118Z,19.65
2022-10-18T18:01:28.946Z,14.80
2022-10-18T18:03:57.313Z,17.15
2022-10-18T18:06:37.411Z,16.13
2022-10-18T18:09:10.853Z,15.55
2022-10-18T18:14:09.025Z,14.77
2022-10-18T18:16:41.483Z,15.48
2022-10-18T18:19:09.946Z,16.08
2022-10-18T18:21:37.260Z,13.90
2022-10-18T18:24:04.518Z,16.73
2022-10-18T18:26:32.869Z,21.27
2022-10-18T18:29:00.113Z,18.80
2022-10-18T18:31:30.711Z,16.52
2022-10-18T18:34:01.008Z,49.95
2022-10-18T18:36:32.567Z,49.35
2022-10-18T18:38:59.529Z,54.72
2022-10-18T18:41:27.988Z,53.35
2022-10-18T18:44:02.115Z,43.40
2022-10-18T18:46:33.174Z,37.08
2022-10-18T18:49:00.217Z,35.22
2022-10-18T18:51:26.913Z,24.65
2022-10-18T18:53:53.840Z,22.92
2022-10-18T18:56:23.557Z,23.50
2022-10-18T18:58:52.161Z,24.17
2022-10-18T19:01:27.469Z,24.25
2022-10-18T19:03:56.132Z,19.08
2022-10-18T19:06:25.428Z,16.23
2022-10-18T19:09:00.837Z,16.25
2022-10-18T19:11:31.263Z,17.50
2022-10-18T19:13:58.731Z,17.05
2022-10-18T19:16:26.809Z,18.33
2022-10-18T19:19:12.784Z,18.88
2022-10-18T19:21:45.523Z,15.75
2022-10-18T19:24:13.055Z,12.90
2022-10-18T19:26:44.850Z,10.70
2022-10-18T19:29:22.246Z,12.43
2022-10-18T19:31:52.726Z,16.08
2022-10-18T19:34:20.610Z,14.00
2022-10-18T19:36:48.791Z,13.82
2022-10-18T19:39:24.388Z,12.48
2022-10-18T19:41:56.706Z,14.40
2022-10-18T19:44:25.202Z,8.63
2022-10-18T19:46:51.893Z,15.52
2022-10-18T19:49:18.562Z,13.00
2022-10-18T19:51:45.428Z,15.35
2022-10-18T19:54:13.215Z,11.70
2022-10-18T19:56:41.757Z,10.85
2022-10-18T19:59:09.370Z,32.95
2022-10-18T20:01:36.235Z,28.70
2022-10-18T20:04:07.294Z,34.90
2022-10-18T20:06:34.805Z,29.38
2022-10-18T20:09:01.814Z,21.73
2022-10-18T20:11:29.449Z,18.08
2022-10-18T20:13:56.727Z,17.42
2022-10-18T20:16:28.366Z,12.93
2022-10-18T20:18:57.300Z,14.40
2022-10-18T20:21:24.044Z,11.82
2022-10-18T20:23:50.628Z,12.45
2022-10-18T20:26:20.802Z,12.52
2022-10-18T20:28:57.382Z,12.50
2022-10-18T20:31:27.187Z,13.27
2022-10-18T20:33:58.777Z,13.25
2022-10-18T20:36:27.347Z,20.65
2022-10-18T20:38:54.928Z,20.88
2022-10-18T20:41:25.013Z,15.52
2022-10-18T20:43:53.659Z,19.35
2022-10-18T20:46:20.784Z,17.02
2022-10-18T20:48:48.766Z,15.77
2022-10-18T20:51:17.011Z,25.90
2022-10-18T20:53:43.767Z,32.03
2022-10-18T20:56:13.319Z,36.95
2022-10-18T20:58:41.743Z,37.30
2022-10-18T21:01:11.157Z,30.55
2022-10-18T21:03:39.671Z,30.85
2022-10-18T21:06:13.691Z,33.80
2022-10-18T21:08:40.398Z,25.25
2022-10-18T21:11:07.510Z,39.15
2022-10-18T21:13:34.628Z,16.77
2022-10-18T21:16:02.398Z,13.40
2022-10-18T21:18:31.733Z,11.43
2022-10-18T21:21:16.046Z,15.60
2022-10-18T21:23:42.765Z,13.43
2022-10-18T21:26:15.971Z,16.75
2022-10-18T21:28:43.048Z,13.95
2022-10-18T21:31:12.767Z,11.80
2022-10-18T21:33:41.005Z,9.45
2022-10-18T21:36:08.048Z,10.10
2022-10-18T21:38:34.702Z,9.00
2022-10-18T21:41:01.741Z,9.00
2022-10-18T21:43:28.483Z,14.10
2022-10-18T21:46:00.044Z,12.63
2022-10-18T21:48:27.689Z,11.93
2022-10-18T21:50:54.877Z,15.05
2022-10-18T21:53:21.901Z,9.50
2022-10-18T21:55:49.069Z,10.52
2022-10-18T21:58:15.636Z,13.52
2022-10-18T22:00:42.265Z,13.90
2022-10-18T22:03:13.761Z,16.13
2022-10-18T22:05:40.408Z,16.45
2022-10-18T22:08:07.554Z,14.90
2022-10-18T22:10:34.209Z,12.73
2022-10-18T22:13:01.457Z,12.02
2022-10-18T22:15:28.095Z,16.33
2022-10-18T22:17:54.708Z,23.30
2022-10-18T22:20:21.284Z,30.02
2022-10-18T22:22:47.843Z,28.23
2022-10-18T22:25:14.460Z,23.35
2022-10-18T22:27:41.243Z,18.60
2022-10-18T22:30:08.310Z,22.60
2022-10-18T22:32:34.860Z,19.63
2022-10-18T22:35:01.449Z,17.20
2022-10-18T22:37:28.072Z,16.67
2022-10-18T22:39:54.648Z,11.52
2022-10-18T22:42:21.339Z,12.10
2022-10-18T22:44:47.955Z,6.90
2022-10-18T22:47:14.580Z,9.90
2022-10-18T22:49:41.230Z,10.43
2022-10-18T22:52:07.822Z,8.77
2022-10-18T22:54:34.413Z,8.30
2022-10-18T22:57:01.020Z,7.50
2022-10-18T22:59:27.602Z,12.35
2022-10-18T23:01:54.160Z,12.23
2022-10-18T23:04:20.759Z,12.35
2022-10-18T23:06:47.400Z,8.60
2022-10-18T23:09:14.064Z,9.40
2022-10-18T23:11:40.688Z,11.05
2022-10-18T23:14:07.721Z,12.43
2022-10-18T23:16:34.654Z,9.75
2022-10-18T23:19:01.309Z,16.50
2022-10-18T23:21:28.837Z,24.00
2022-10-18T23:23:56.713Z,28.17
2022-10-18T23:26:26.178Z,14.25
2022-10-18T23:28:54.204Z,17.25
2022-10-18T23:31:23.973Z,12.55
2022-10-18T23:33:52.782Z,9.50
2022-10-18T23:36:19.583Z,10.73
2022-10-18T23:38:46.258Z,13.27
2022-10-18T23:41:14.748Z,10.60
2022-10-18T23:43:42.105Z,10.38
2022-10-18T23:46:09.660Z,9.63
2022-10-18T23:48:36.719Z,10.75
2022-10-18T23:51:03.875Z,6.85
2022-10-18T23:53:31.113Z,10.52
2022-10-18T23:55:57.710Z,9.80
2022-10-18T23:58:25.322Z,20.42
